createdAt,value
2018-06-15T00:01:06.364Z,21.20
2018-06-15T00:03:36.947Z,21.20
2018-06-15T00:06:10.657Z,21.20
2018-06-15T00:08:47.586Z,20.50
2018-06-15T00:11:20.604Z,21.10
2018-06-15T00:13:53.269Z,21.10
2018-06-15T00:16:32.763Z,21.10
2018-06-15T00:19:05.846Z,21.10
2018-06-15T00:21:37.770Z,21.10
2018-06-15T00:24:08.340Z,21.10
2018-06-15T00:26:38.903Z,21.20
2018-06-15T00:29:09.340Z,21.10
2018-06-15T00:31:40.161Z,21.10
2018-06-15T00:34:10.913Z,21.10
2018-06-15T00:36:41.643Z,21.10
2018-06-15T00:39:14.290Z,21.00
2018-06-15T00:41:45.718Z,21.00
2018-06-15T00:44:16.457Z,21.10
2018-06-15T00:46:47.107Z,21.00
2018-06-15T00:49:17.756Z,21.00
2018-06-15T00:51:48.235Z,21.00
2018-06-15T00:54:18.975Z,20.90
2018-06-15T00:57:00.601Z,21.00
2018-06-15T00:59:30.989Z,20.90
2018-06-15T01:02:01.839Z,20.80
2018-06-15T01:04:32.629Z,20.80
2018-06-15T01:07:03.559Z,20.70
2018-06-15T01:09:34.051Z,20.70
2018-06-15T01:12:04.661Z,20.60
2018-06-15T01:14:35.161Z,20.60
2018-06-15T01:17:05.740Z,20.50
2018-06-15T01:19:36.532Z,20.50
2018-06-15T01:22:07.260Z,20.50
2018-06-15T01:24:38.153Z,20.50
2018-06-15T01:27:08.976Z,20.40
2018-06-15T01:29:39.470Z,20.40
2018-06-15T01:32:10.142Z,20.30
2018-06-15T01:34:40.720Z,20.30
2018-06-15T01:37:14.407Z,20.30
2018-06-15T01:39:45.045Z,20.30
2018-06-15T01:42:15.520Z,20.30
2018-06-15T01:44:46.333Z,20.30
2018-06-15T01:47:17.012Z,20.30
2018-06-15T01:49:47.591Z,20.30
2018-06-15T01:52:18.062Z,20.30
2018-06-15T01:54:48.528Z,20.30
2018-06-15T01:57:19.202Z,20.30
2018-06-15T01:59:49.729Z,20.30
2018-06-15T02:02:20.344Z,20.20
2018-06-15T02:04:50.876Z,20.10
2018-06-15T02:07:21.389Z,20.10
2018-06-15T02:09:52.089Z,20.00
2018-06-15T02:12:22.685Z,20.00
2018-06-15T02:14:53.501Z,19.90
2018-06-15T02:17:24.208Z,19.90
2018-06-15T02:19:54.882Z,19.80
2018-06-15T02:22:25.318Z,19.80
2018-06-15T02:24:55.869Z,19.70
2018-06-15T02:27:26.603Z,19.70
2018-06-15T02:29:57.176Z,19.60
2018-06-15T02:32:27.644Z,19.60
2018-06-15T02:34:58.115Z,19.60
2018-06-15T02:37:28.744Z,19.60
2018-06-15T02:39:59.335Z,19.50
2018-06-15T02:42:29.812Z,19.50
2018-06-15T02:47:30.659Z,19.40
2018-06-15T02:50:01.110Z,19.40
2018-06-15T02:52:31.966Z,19.50
2018-06-15T02:55:02.619Z,19.50
2018-06-15T02:57:33.144Z,19.60
2018-06-15T03:00:03.642Z,19.60
2018-06-15T03:02:34.292Z,19.70
2018-06-15T03:05:04.986Z,19.70
2018-06-15T03:07:35.469Z,19.80
2018-06-15T03:10:06.194Z,19.80
2018-06-15T03:12:36.906Z,19.80
2018-06-15T03:15:08.446Z,19.90
2018-06-15T03:17:41.159Z,19.90
2018-06-15T03:20:12.170Z,20.00
2018-06-15T03:22:42.619Z,20.10
2018-06-15T03:25:13.056Z,20.10
2018-06-15T03:27:43.944Z,20.20
2018-06-15T03:30:14.450Z,20.20
2018-06-15T03:32:44.982Z,20.30
2018-06-15T03:35:15.583Z,20.30
2018-06-15T03:37:45.976Z,20.40
2018-06-15T03:40:16.507Z,20.40
2018-06-15T03:42:47.416Z,20.50
2018-06-15T03:45:17.899Z,20.60
2018-06-15T03:47:48.325Z,20.70
2018-06-15T03:50:24.772Z,20.70
2018-06-15T03:52:55.748Z,20.80
2018-06-15T03:55:26.267Z,20.90
2018-06-15T03:57:56.922Z,20.90
2018-06-15T04:00:27.829Z,21.00
2018-06-15T04:02:58.359Z,21.10
2018-06-15T04:05:28.781Z,21.20
2018-06-15T04:07:59.321Z,21.20
2018-06-15T04:10:29.820Z,21.30
2018-06-15T04:13:00.396Z,21.40
2018-06-15T04:15:30.980Z,21.50
2018-06-15T04:18:06.412Z,21.50
2018-06-15T04:20:40.221Z,21.60
2018-06-15T04:23:10.805Z,21.70
2018-06-15T04:25:41.174Z,21.80
2018-06-15T04:28:11.676Z,21.90
2018-06-15T04:30:42.483Z,22.00
2018-06-15T04:33:13.108Z,22.10
2018-06-15T04:35:43.682Z,22.30
2018-06-15T04:38:16.743Z,22.40
2018-06-15T04:40:50.489Z,22.50
2018-06-15T04:43:21.549Z,22.70
2018-06-15T04:45:52.207Z,22.80
2018-06-15T04:48:22.672Z,22.90
2018-06-15T04:50:53.246Z,23.00
2018-06-15T04:53:28.159Z,23.10
2018-06-15T04:55:59.377Z,23.30
2018-06-15T04:58:29.976Z,23.40
2018-06-15T05:01:00.450Z,23.50
2018-06-15T05:03:34.419Z,23.70
2018-06-15T05:06:05.448Z,23.80
2018-06-15T05:08:35.935Z,24.00
2018-06-15T05:11:06.538Z,24.10
2018-06-15T05:13:37.044Z,24.30
2018-06-15T05:16:07.585Z,24.40
2018-06-15T05:18:38.211Z,24.50
2018-06-15T05:21:08.950Z,24.70
2018-06-15T05:23:39.674Z,24.90
2018-06-15T05:26:10.714Z,25.00
2018-06-15T05:31:11.020Z,25.30
2018-06-15T05:33:41.765Z,25.50
2018-06-15T05:36:12.537Z,25.70
2018-06-15T05:38:43.031Z,25.90
2018-06-15T05:41:13.638Z,26.10
2018-06-15T05:43:44.113Z,26.30
2018-06-15T05:46:14.619Z,26.50
2018-06-15T05:48:45.547Z,26.70
2018-06-15T05:51:16.100Z,26.80
2018-06-15T05:53:48.266Z,26.90
2018-06-15T05:56:18.932Z,26.80
2018-06-15T05:58:50.101Z,26.70
2018-06-15T06:01:20.961Z,26.70
2018-06-15T06:03:51.456Z,26.90
2018-06-15T06:06:22.476Z,27.00
2018-06-15T06:08:53.045Z,27.10
2018-06-15T06:11:23.565Z,27.30
2018-06-15T06:13:54.225Z,27.40
2018-06-15T06:16:24.569Z,27.50
2018-06-15T06:18:55.061Z,27.60
2018-06-15T06:21:26.475Z,27.80
2018-06-15T06:23:58.218Z,28.00
2018-06-15T06:26:28.876Z,28.10
2018-06-15T06:28:59.492Z,28.40
2018-06-15T06:31:30.101Z,28.50
2018-06-15T06:34:00.654Z,28.70
2018-06-15T06:36:31.173Z,28.90
2018-06-15T06:39:01.716Z,29.10
2018-06-15T06:41:32.427Z,29.20
2018-06-15T06:44:03.036Z,29.40
2018-06-15T06:46:33.829Z,29.60
2018-06-15T06:49:04.515Z,29.80
2018-06-15T06:51:35.221Z,30.00
2018-06-15T06:54:07.209Z,30.10
2018-06-15T06:56:37.648Z,30.20
2018-06-15T06:59:08.139Z,30.30
2018-06-15T07:01:38.972Z,30.50
2018-06-15T07:04:09.533Z,30.60
2018-06-15T07:06:40.185Z,30.80
2018-06-15T07:09:11.063Z,30.90
2018-06-15T07:11:41.609Z,31.10
2018-06-15T07:14:12.585Z,31.30
2018-06-15T07:16:43.268Z,31.40
2018-06-15T07:19:13.838Z,31.40
2018-06-15T07:21:44.613Z,31.50
2018-06-15T07:24:15.156Z,31.50
2018-06-15T07:26:45.710Z,31.50
2018-06-15T07:29:16.208Z,31.50
2018-06-15T07:31:47.016Z,31.60
2018-06-15T07:34:17.502Z,31.60
2018-06-15T07:36:48.019Z,31.70
2018-06-15T07:39:18.644Z,31.80
2018-06-15T07:41:49.360Z,31.80
2018-06-15T07:44:20.051Z,31.90
2018-06-15T07:46:50.854Z,32.00
2018-06-15T07:49:21.394Z,32.20
2018-06-15T07:51:51.845Z,32.20
2018-06-15T07:54:22.375Z,32.30
2018-06-15T07:56:52.810Z,32.40
2018-06-15T07:59:23.643Z,32.40
2018-06-15T08:01:54.166Z,32.50
2018-06-15T08:06:57.462Z,32.70
2018-06-15T08:09:28.050Z,32.60
2018-06-15T08:11:58.617Z,32.80
2018-06-15T08:14:29.220Z,33.00
2018-06-15T08:16:59.912Z,33.10
2018-06-15T08:19:30.638Z,33.20
2018-06-15T08:22:01.020Z,33.30
2018-06-15T08:24:32.018Z,33.50
2018-06-15T08:27:02.711Z,33.50
2018-06-15T08:29:33.182Z,33.70
2018-06-15T08:32:03.656Z,33.70
2018-06-15T08:37:04.762Z,34.00
2018-06-15T08:39:35.539Z,34.10
2018-06-15T08:42:06.457Z,34.20
2018-06-15T08:44:37.014Z,34.30
2018-06-15T08:47:07.521Z,34.30
2018-06-15T08:49:38.693Z,34.40
2018-06-15T08:52:09.362Z,34.50
2018-06-15T08:54:40.302Z,34.40
2018-06-15T08:57:10.938Z,34.50
2018-06-15T08:59:41.473Z,34.70
2018-06-15T09:02:12.326Z,34.80
2018-06-15T09:04:43.059Z,34.90
2018-06-15T09:07:13.451Z,35.10
2018-06-15T09:09:53.359Z,34.90
2018-06-15T09:12:26.360Z,35.10
2018-06-15T09:14:57.845Z,35.10
2018-06-15T09:17:29.335Z,35.20
2018-06-15T09:20:00.333Z,35.20
2018-06-15T09:22:31.580Z,35.30
2018-06-15T09:25:02.669Z,35.10
2018-06-15T09:27:33.625Z,35.30
2018-06-15T09:30:04.440Z,35.50
2018-06-15T09:32:35.288Z,35.60
2018-06-15T09:35:05.937Z,35.50
2018-06-15T09:37:36.674Z,35.40
2018-06-15T09:40:07.324Z,35.50
2018-06-15T09:42:37.769Z,35.30
2018-06-15T09:45:08.246Z,35.00
2018-06-15T09:47:38.848Z,35.30
2018-06-15T09:50:09.784Z,35.40
2018-06-15T09:52:40.356Z,35.40
2018-06-15T09:55:11.137Z,34.90
2018-06-15T09:57:42.749Z,35.10
2018-06-15T10:00:17.456Z,35.00
2018-06-15T10:02:48.258Z,35.30
2018-06-15T10:05:18.848Z,35.60
2018-06-15T10:07:49.521Z,35.90
2018-06-15T10:10:20.158Z,35.60
2018-06-15T10:15:47.030Z,34.70
2018-06-15T10:18:18.320Z,34.10
2018-06-15T10:20:48.923Z,33.60
2018-06-15T10:23:20.096Z,33.20
2018-06-15T10:25:50.460Z,33.00
2018-06-15T10:31:28.152Z,32.90
2018-06-15T10:33:58.910Z,33.70
2018-06-15T10:36:29.727Z,34.30
2018-06-15T10:48:30.796Z,34.60
2018-06-15T10:51:01.573Z,34.70
2018-06-15T10:53:32.408Z,34.60
2018-06-15T10:56:03.669Z,34.40
2018-06-15T10:58:34.514Z,34.40
2018-06-15T11:01:05.283Z,34.20
2018-06-15T11:03:38.670Z,34.20
2018-06-15T11:08:40.417Z,34.20
2018-06-15T11:11:10.928Z,34.20
2018-06-15T11:13:41.682Z,34.20
2018-06-15T11:16:12.099Z,34.10
2018-06-15T11:18:42.996Z,33.90
2018-06-15T11:21:13.565Z,33.70
2018-06-15T11:23:44.556Z,33.50
2018-06-15T11:26:15.384Z,33.20
2018-06-15T11:28:45.808Z,32.90
2018-06-15T11:31:16.303Z,32.70
2018-06-15T11:33:47.016Z,32.60
2018-06-15T11:36:17.568Z,32.40
2018-06-15T11:38:48.156Z,32.10
2018-06-15T11:41:19.184Z,32.00
2018-06-15T11:43:49.602Z,31.70
2018-06-15T11:46:20.339Z,31.50
2018-06-15T11:48:50.825Z,31.20
2018-06-15T11:51:21.515Z,31.00
2018-06-15T11:53:52.006Z,30.80
2018-06-15T11:56:22.964Z,30.70
2018-06-15T12:03:52.945Z,30.40
2018-06-15T12:06:23.422Z,30.30
2018-06-15T12:11:23.646Z,30.10
2018-06-15T12:13:54.158Z,30.10
2018-06-15T12:16:24.864Z,30.10
2018-06-15T12:18:55.508Z,29.90
2018-06-15T12:21:26.017Z,29.80
2018-06-15T12:23:57.469Z,29.70
2018-06-15T12:26:28.421Z,29.30
2018-06-15T12:28:58.832Z,29.20
2018-06-15T12:31:29.408Z,28.90
2018-06-15T12:33:59.836Z,28.70
2018-06-15T12:36:30.438Z,28.50
2018-06-15T12:39:00.913Z,28.40
2018-06-15T12:41:31.428Z,28.40
2018-06-15T12:44:01.910Z,28.30
2018-06-15T12:46:32.628Z,28.30
2018-06-15T12:49:03.103Z,28.20
2018-06-15T12:51:33.604Z,28.10
2018-06-15T12:54:04.155Z,28.00
2018-06-15T12:56:34.637Z,27.90
2018-06-15T12:59:05.554Z,27.90
2018-06-15T13:01:35.928Z,27.70
2018-06-15T13:04:06.480Z,27.60
2018-06-15T13:06:36.834Z,27.30
2018-06-15T13:09:09.324Z,27.10
2018-06-15T13:11:39.833Z,26.90
2018-06-15T13:14:10.264Z,26.70
2018-06-15T13:16:41.188Z,26.20
2018-06-15T13:19:11.971Z,25.30
2018-06-15T13:21:42.457Z,24.40
2018-06-15T13:24:13.916Z,23.00
2018-06-15T16:47:28.207Z,25.90
2018-06-15T16:49:59.064Z,24.70
2018-06-15T16:52:29.951Z,24.40
2018-06-15T16:55:00.511Z,24.20
2018-06-15T16:57:31.727Z,24.20
2018-06-15T17:00:02.282Z,24.00
2018-06-15T17:02:32.909Z,23.90
2018-06-15T17:05:03.590Z,23.90
2018-06-15T17:07:34.280Z,23.70
2018-06-15T17:10:04.864Z,23.70
2018-06-15T17:12:35.544Z,23.70
2018-06-15T17:15:06.382Z,23.60
2018-06-15T17:17:37.028Z,23.50
2018-06-15T17:20:07.508Z,23.40
2018-06-15T17:22:37.964Z,23.30
2018-06-15T17:25:08.504Z,23.20
2018-06-15T17:27:39.045Z,23.20
2018-06-15T17:30:09.761Z,23.10
2018-06-15T17:32:40.304Z,23.10
2018-06-15T17:35:10.980Z,23.10
2018-06-15T17:37:47.951Z,23.00
2018-06-15T17:40:18.364Z,22.90
2018-06-15T17:42:49.199Z,22.90
2018-06-15T17:45:20.014Z,22.80
2018-06-15T17:47:51.183Z,22.80
2018-06-15T17:50:22.084Z,22.70
2018-06-15T17:52:52.868Z,22.70
2018-06-15T17:55:23.616Z,22.70
2018-06-15T17:57:54.310Z,22.70
2018-06-15T18:00:25.105Z,22.60
2018-06-15T18:02:55.606Z,22.60
2018-06-15T18:05:27.263Z,22.60
2018-06-15T18:07:57.719Z,22.60
2018-06-15T18:10:28.169Z,22.60
2018-06-15T18:12:58.549Z,22.60
2018-06-15T18:15:29.242Z,22.50
2018-06-15T18:17:59.818Z,22.50
2018-06-15T18:20:32.545Z,22.50
2018-06-15T18:23:03.080Z,22.50
2018-06-15T18:25:33.639Z,22.50
2018-06-15T18:28:04.165Z,22.50
2018-06-15T18:30:34.623Z,22.50
2018-06-15T18:33:05.249Z,22.40
2018-06-15T18:35:35.648Z,22.40
2018-06-15T18:38:06.251Z,22.30
2018-06-15T18:40:36.529Z,22.30
2018-06-15T18:43:06.864Z,22.20
2018-06-15T18:45:37.477Z,22.20
2018-06-15T18:48:07.899Z,22.20
2018-06-15T18:50:38.586Z,22.20
2018-06-15T18:53:08.943Z,22.20
2018-06-15T18:55:39.748Z,22.20
2018-06-15T18:58:11.163Z,22.30
2018-06-15T19:00:41.766Z,22.30
2018-06-15T19:03:12.391Z,22.30
2018-06-15T19:05:42.881Z,22.30
2018-06-15T19:08:13.413Z,22.30
2018-06-15T19:10:43.865Z,22.30
2018-06-15T19:13:14.439Z,22.20
2018-06-15T19:15:44.849Z,22.20
2018-06-15T19:18:15.314Z,22.20
2018-06-15T19:20:45.885Z,22.20
2018-06-15T19:23:16.358Z,22.20
2018-06-15T19:25:46.869Z,22.30
2018-06-15T19:28:17.483Z,22.30
2018-06-15T19:30:49.025Z,22.40
2018-06-15T19:33:19.460Z,22.50
2018-06-15T19:35:50.051Z,22.50
2018-06-15T19:38:20.564Z,22.50
2018-06-15T19:40:51.160Z,22.60
2018-06-15T19:43:21.652Z,22.70
2018-06-15T19:45:52.123Z,22.80
2018-06-15T19:48:22.663Z,22.80
2018-06-15T19:50:53.321Z,22.60
2018-06-15T19:53:23.921Z,22.50
2018-06-15T19:58:24.535Z,22.40
2018-06-15T20:00:55.113Z,22.50
2018-06-15T20:03:25.707Z,22.60
2018-06-15T20:05:56.183Z,22.60
2018-06-15T20:08:26.553Z,22.60
2018-06-15T20:10:56.928Z,22.60
2018-06-15T20:13:27.415Z,22.70
2018-06-15T20:15:57.840Z,22.80
2018-06-15T20:18:28.377Z,22.80
2018-06-15T20:20:59.160Z,22.80
2018-06-15T20:23:29.944Z,22.80
2018-06-15T20:26:00.508Z,22.80
2018-06-15T20:28:31.169Z,22.70
2018-06-15T20:31:01.661Z,22.70
2018-06-15T20:33:36.307Z,22.50
2018-06-15T20:36:07.508Z,22.20
2018-06-15T20:38:38.039Z,22.10
2018-06-15T20:41:08.722Z,21.80
2018-06-15T20:43:39.561Z,21.60
2018-06-15T20:46:13.000Z,21.40
2018-06-15T20:48:43.586Z,21.20
2018-06-15T20:53:44.139Z,21.10
2018-06-15T20:56:14.665Z,21.00
2018-06-15T20:58:45.029Z,21.00
2018-06-15T21:01:15.538Z,20.90
2018-06-15T21:03:46.034Z,20.80
2018-06-15T21:06:17.049Z,20.70
2018-06-15T21:08:47.349Z,20.70
2018-06-15T21:11:17.954Z,20.70
2018-06-15T21:13:48.581Z,20.60
2018-06-15T21:16:19.052Z,20.60
2018-06-15T21:18:55.003Z,20.60
2018-06-15T21:21:25.896Z,20.60
2018-06-15T21:23:56.388Z,20.60
2018-06-15T21:26:26.996Z,20.70
2018-06-15T21:28:57.737Z,20.80
2018-06-15T21:31:28.328Z,20.90
2018-06-15T21:33:58.744Z,21.10
2018-06-15T21:36:29.377Z,21.20
2018-06-15T21:39:00.073Z,21.40
2018-06-15T21:41:31.668Z,21.50
2018-06-15T21:44:02.999Z,21.50
2018-06-15T21:46:33.414Z,21.50
2018-06-15T21:49:04.371Z,21.50
2018-06-15T21:51:35.057Z,21.30
2018-06-15T21:54:05.590Z,21.20
2018-06-15T21:56:36.164Z,21.10
2018-06-15T21:59:06.658Z,21.00
2018-06-15T22:01:37.162Z,21.00
2018-06-15T22:04:07.511Z,20.60
2018-06-15T22:06:38.151Z,20.70
2018-06-15T22:09:10.369Z,20.60
2018-06-15T22:11:40.759Z,20.60
2018-06-15T22:14:11.480Z,20.50
2018-06-15T22:16:46.884Z,20.40
2018-06-15T22:19:17.628Z,20.40
2018-06-15T22:21:48.427Z,20.40
2018-06-15T22:24:19.366Z,20.40
2018-06-15T22:26:50.702Z,20.40
2018-06-15T22:29:21.218Z,20.30
2018-06-15T22:31:52.216Z,20.30
2018-06-15T22:34:23.591Z,20.30
2018-06-15T22:36:54.023Z,20.40
2018-06-15T22:39:24.425Z,20.40
2018-06-15T22:41:54.906Z,20.50
2018-06-15T22:44:25.275Z,20.60
2018-06-15T22:46:56.168Z,20.50
2018-06-15T22:49:26.699Z,20.60
2018-06-15T22:51:56.984Z,20.50
2018-06-15T22:54:27.474Z,20.50
2018-06-15T22:56:57.801Z,20.50
2018-06-15T22:59:28.212Z,20.50
2018-06-15T23:01:58.907Z,20.60
2018-06-15T23:04:29.450Z,20.60
2018-06-15T23:07:00.238Z,20.60
2018-06-15T23:09:31.043Z,20.50
2018-06-15T23:12:01.730Z,20.40
2018-06-15T23:14:32.063Z,20.30
2018-06-15T23:17:02.633Z,20.40
2018-06-15T23:19:33.271Z,20.30
2018-06-15T23:22:03.721Z,20.30
2018-06-15T23:24:34.368Z,20.20
2018-06-15T23:27:04.904Z,20.10
2018-06-15T23:29:35.432Z,20.00
2018-06-15T23:32:06.006Z,20.00
2018-06-15T23:34:36.335Z,19.90
2018-06-15T23:37:06.950Z,19.80
2018-06-15T23:39:37.602Z,19.80
2018-06-15T23:42:08.288Z,19.70
2018-06-15T23:44:39.275Z,19.60
2018-06-15T23:47:09.673Z,19.60
2018-06-15T23:49:40.228Z,19.60
2018-06-15T23:52:10.804Z,19.60
2018-06-15T23:54:41.148Z,19.70
2018-06-15T23:57:11.742Z,19.60
2018-06-15T23:59:42.280Z,19.50
